KNUI

Webster Nolf Airport

St Inigoes, Maryland, USA
METAR KNUI 162153Z AUTO 31010G15KT 10SM OVC012 07/06 A2983 RMK AO2 SLP101 T00720056
Observed Flight Rules
Dec-16 @ 21:53 UTC (9 minutes ago) Marginal Visual Flight Rules
Wind Visibility Clouds
310° at 10 knots
 Gusting to 15 knots
10 miles
  • Overcast at 1,200' AGL
Temperatures Readings
Current 7°C / 45°F
Dewpoint 6°C / 43°F
Humidity 93%
Altimeter 29.83" Hg
Pressure 1010.1 hPa
Elevation 7
METAR KNUI 162153Z AUTO 31010G15KT 10SM OVC012 07/06 A2983 RMK AO2 SLP101 T00720056
Observed Flight Rules
Dec-16 @ 21:53 UTC
(9 minutes ago)
MVFR
Wind Visibility
310° at 10 knots
 Gusting to 15 knots
10 miles
Clouds
  • Overcast at 1,200' AGL
Temperature Dewpoint
7°C / 45°F 6°C / 43°F
Humidity Altimeter Pressure
93% 29.83" Hg 1010.1 hPa